Time;durP1;ratioP1;P1;durP2;ratioP2;P2;SDS_P1;SDS_P2;PMS_P1;PMS_P2;Temp;Humidity;BMP_temperature;BMP_pressure;BME280_temperature;BME280_humidity;BME280_pressure;Samples;Min_cycle;Max_cycle;Signal;HPM_P1;HPM_P2
2022/06/26 00:01:20;;;;;;;3.03;1.57;;;19.40;99.90;;;20.20;100.00;97827.16;5062954;28;20460;-75
2022/06/26 00:03:50;;;;;;;2.60;1.40;;;19.30;99.90;;;20.17;100.00;97822.38;5062084;28;20468;-75
2022/06/26 00:06:21;;;;;;;2.40;1.60;;;19.20;99.90;;;20.16;100.00;97827.94;5064835;28;20476;-74
2022/06/26 00:08:52;;;;;;;2.20;1.50;;;19.20;99.90;;;20.09;100.00;97825.50;5062468;28;20460;-75
2022/06/26 00:11:20;;;;;;;2.60;1.30;;;19.30;99.90;;;20.06;100.00;97831.31;5062618;28;20467;-75
2022/06/26 00:13:51;;;;;;;3.10;1.20;;;19.30;99.90;;;20.02;100.00;97835.53;5063755;28;20496;-75
2022/06/26 00:16:22;;;;;;;2.47;1.50;;;19.20;99.90;;;20.00;100.00;97837.63;5061587;28;20461;-75
2022/06/26 00:18:52;;;;;;;2.67;1.60;;;19.20;99.90;;;19.97;100.00;97838.94;5062648;28;20970;-75
2022/06/26 00:21:23;;;;;;;2.03;1.50;;;19.10;99.90;;;19.93;100.00;97839.69;5064662;28;20835;-75
2022/06/26 00:23:55;;;;;;;1.97;1.57;;;19.10;99.90;;;19.84;100.00;97844.66;5065618;28;21694;-75
2022/06/26 00:26:24;;;;;;;1.30;1.10;;;19.20;99.90;;;19.83;100.00;97842.25;5064807;28;20453;-74
2022/06/26 00:28:56;;;;;;;2.50;1.40;;;19.10;99.90;;;19.83;100.00;97842.25;5061687;28;20456;-74
2022/06/26 00:31:27;;;;;;;3.67;1.57;;;19.00;99.90;;;19.85;100.00;97848.13;5064088;28;21508;-75
2022/06/26 00:33:57;;;;;;;3.40;1.40;;;19.00;99.90;;;19.83;100.00;97847.53;5062262;28;20503;-75
2022/06/26 00:36:28;;;;;;;4.47;1.90;;;19.00;99.90;;;19.77;100.00;97859.19;5063130;28;20878;-75
2022/06/26 00:38:59;;;;;;;1.97;1.47;;;19.00;99.90;;;19.78;100.00;97858.94;5064661;28;20465;-74
2022/06/26 00:41:29;;;;;;;3.07;1.60;;;19.00;99.90;;;19.80;100.00;97870.09;5062012;28;20481;-74
2022/06/26 00:43:59;;;;;;;1.70;1.40;;;19.00;99.90;;;19.81;100.00;97863.75;5059825;28;21215;-74
2022/06/26 00:46:29;;;;;;;1.60;1.20;;;18.90;99.90;;;19.80;100.00;97869.28;5063731;28;20946;-75
2022/06/26 00:48:59;;;;;;;3.03;1.60;;;18.80;99.90;;;19.83;100.00;97872.25;5061528;28;20472;-74
2022/06/26 00:51:29;;;;;;;1.83;1.40;;;18.90;99.90;;;19.80;100.00;97869.28;5061857;28;20472;-75
2022/06/26 00:54:00;;;;;;;2.27;1.40;;;18.90;99.90;;;19.76;100.00;97876.13;5065433;28;20542;-75
2022/06/26 00:56:29;;;;;;;2.33;1.30;;;18.90;99.90;;;19.69;100.00;97872.88;5065760;28;20489;-75
2022/06/26 00:58:59;;;;;;;3.30;1.60;;;18.90;99.90;;;19.66;100.00;97882.16;5064382;28;20441;-75
2022/06/26 01:01:29;;;;;;;3.07;1.70;;;18.90;99.90;;;19.66;100.00;97870.72;5063156;28;20820;-75
2022/06/26 01:04:00;;;;;;;2.33;1.40;;;18.80;99.90;;;19.66;100.00;97878.69;5065839;28;20447;-75
2022/06/26 01:06:31;;;;;;;1.40;1.30;;;18.80;99.90;;;19.62;100.00;97882.88;5062931;28;20448;-75
2022/06/26 01:09:03;;;;;;;1.97;1.17;;;18.80;99.90;;;19.59;100.00;97879.69;5060047;28;20451;-75
2022/06/26 01:11:32;;;;;;;3.50;1.97;;;18.80;99.90;;;19.54;100.00;97876.97;5062578;28;20461;-75
2022/06/26 01:14:05;;;;;;;2.50;1.13;;;18.80;99.90;;;19.56;100.00;97880.19;5065846;28;20484;-75
2022/06/26 01:16:36;;;;;;;2.03;1.40;;;18.70;99.90;;;19.55;100.00;97873.28;5063016;28;20531;-75
2022/06/26 01:19:09;;;;;;;1.80;1.47;;;18.70;99.90;;;19.53;100.00;97879.88;5067138;28;20498;-75
2022/06/26 01:21:39;;;;;;;1.77;1.17;;;18.70;99.90;;;19.53;100.00;97878.03;5063572;28;20464;-75
2022/06/26 01:24:11;;;;;;;2.67;1.40;;;18.70;99.90;;;19.54;100.00;97873.53;5063501;28;20464;-75
2022/06/26 01:26:41;;;;;;;3.17;1.70;;;18.70;99.90;;;19.53;100.00;97869.28;5064970;28;20456;-75
2022/06/26 01:29:12;;;;;;;2.10;1.10;;;18.70;99.90;;;19.51;100.00;97866.84;5067398;28;20825;-74
2022/06/26 01:31:42;;;;;;;3.60;1.40;;;18.60;99.90;;;19.50;100.00;97867.13;5064665;28;20464;-75
2022/06/26 01:34:13;;;;;;;2.73;1.30;;;18.70;99.90;;;19.48;100.00;97867.34;5063566;28;20864;-75
2022/06/26 01:36:44;;;;;;;2.30;1.57;;;18.60;99.90;;;19.46;100.00;97863.34;5062899;28;20464;-75
2022/06/26 01:39:19;;;;;;;4.13;1.70;;;18.60;99.90;;;19.42;100.00;97868.34;5059446;28;20461;-75
2022/06/26 01:41:49;;;;;;;2.80;1.50;;;18.60;99.90;;;19.44;100.00;97868.09;5060934;28;20488;-75
2022/06/26 01:44:19;;;;;;;2.00;1.20;;;18.60;99.90;;;19.43;100.00;97875.28;5063163;28;20467;-75
2022/06/26 01:46:50;;;;;;;2.03;1.20;;;18.60;99.90;;;19.45;100.00;97867.84;5059692;28;20464;-75
2022/06/26 01:49:21;;;;;;;2.00;1.83;;;18.50;99.90;;;19.41;100.00;97887.97;5061659;28;20456;-75
2022/06/26 01:51:51;;;;;;;5.97;1.40;;;18.60;99.90;;;19.40;100.00;97886.31;5060911;28;21521;-75
2022/06/26 01:54:24;;;;;;;1.87;1.33;;;18.60;99.90;;;19.41;100.00;97874.69;5062571;28;20476;-75
2022/06/26 01:56:54;;;;;;;2.60;1.40;;;18.60;99.90;;;19.38;100.00;97869.06;5062335;28;20517;-75
2022/06/26 01:59:24;;;;;;;7.50;1.70;;;18.50;99.90;;;19.36;100.00;97868.50;5061967;28;20468;-75
2022/06/26 02:01:55;;;;;;;1.77;1.27;;;18.50;99.90;;;19.36;100.00;97868.50;5061548;28;20465;-75
2022/06/26 02:04:26;;;;;;;1.30;1.10;;;18.60;99.90;;;19.37;100.00;97870.09;5060885;28;20820;-75
2022/06/26 02:06:56;;;;;;;4.00;1.40;;;18.60;99.90;;;19.33;100.00;97867.13;5060853;28;20472;-75
2022/06/26 02:15:11;;;;;;;7.93;1.40;;;18.40;99.90;;;19.29;100.00;97868.69;5063442;28;20484;-75
2022/06/26 02:17:42;;;;;;;1.80;1.40;;;18.50;99.90;;;19.29;100.00;97871.34;5059573;28;20491;-75
2022/06/26 02:20:13;;;;;;;2.83;1.50;;;18.40;99.90;;;19.27;100.00;97875.28;5061182;28;20965;-74
2022/06/26 02:22:43;;;;;;;1.43;1.10;;;18.40;99.90;;;19.27;100.00;97876.09;5062605;28;20543;-75
2022/06/26 02:25:15;;;;;;;2.63;1.20;;;18.40;99.90;;;19.24;100.00;97870.47;5063452;28;20938;-75
2022/06/26 02:27:45;;;;;;;4.80;1.50;;;18.40;99.90;;;19.23;100.00;97868.88;5063717;28;20437;-75
2022/06/26 02:30:15;;;;;;;2.60;1.17;;;18.40;99.90;;;19.22;100.00;97873.38;5063342;28;20442;-75
2022/06/26 02:32:46;;;;;;;3.80;1.77;;;18.40;99.90;;;19.19;100.00;97870.41;5062598;28;20531;-75
2022/06/26 02:35:17;;;;;;;3.70;1.80;;;18.30;99.90;;;19.16;100.00;97871.69;5059161;28;20550;-74
2022/06/26 02:37:47;;;;;;;3.30;2.00;;;18.30;99.90;;;19.14;100.00;97860.56;5061906;28;20543;-75
2022/06/26 02:40:20;;;;;;;3.77;1.57;;;18.30;99.90;;;19.11;100.00;97866.34;5062188;28;20463;-75
2022/06/26 02:42:51;;;;;;;3.87;1.90;;;18.30;99.90;;;19.07;100.00;97866.03;5059782;28;20518;-75
2022/06/26 02:45:23;;;;;;;4.17;2.20;;;18.20;99.90;;;19.05;100.00;97864.69;5061392;28;20460;-74
2022/06/26 02:47:53;;;;;;;3.00;2.50;;;18.20;99.90;;;19.02;100.00;97873.13;5061418;28;20846;-74
2022/06/26 02:50:24;;;;;;;2.93;2.50;;;18.20;99.90;;;18.99;100.00;97873.59;5059557;28;20464;-75
2022/06/26 02:52:55;;;;;;;4.47;2.60;;;18.20;99.90;;;18.98;100.00;97864.88;5062129;28;20452;-75
2022/06/26 02:55:26;;;;;;;6.00;3.03;;;18.20;99.90;;;18.96;100.00;97872.25;5063858;28;20487;-75
2022/06/26 02:57:55;;;;;;;4.47;3.13;;;18.20;99.90;;;18.96;100.00;97863.47;5059207;28;20464;-75
2022/06/26 03:00:26;;;;;;;5.90;3.23;;;18.10;99.90;;;18.97;100.00;97868.56;5059795;28;21014;-75
2022/06/26 03:02:56;;;;;;;4.37;3.50;;;18.10;99.90;;;18.97;100.00;97873.03;5060400;28;20535;-75
2022/06/26 03:05:26;;;;;;;5.43;3.87;;;18.10;99.90;;;18.92;100.00;97883.56;5061289;28;20476;-75
2022/06/26 03:07:57;;;;;;;5.00;4.00;;;18.10;99.90;;;18.90;100.00;97883.03;5059814;28;20453;-74
2022/06/26 03:10:29;;;;;;;5.30;3.90;;;18.10;99.90;;;18.89;100.00;97878.75;5060666;28;20810;-75
2022/06/26 03:13:00;;;;;;;5.53;3.50;;;18.00;99.90;;;18.91;100.00;97884.63;5062320;28;20844;-75
2022/06/26 03:15:31;;;;;;;5.90;3.73;;;18.00;99.90;;;18.94;100.00;97881.50;5060264;28;20488;-75
2022/06/26 03:18:03;;;;;;;14.43;3.50;;;18.00;99.90;;;18.92;100.00;97878.25;5059061;28;21302;-75
2022/06/26 03:20:33;;;;;;;6.97;4.60;;;18.00;99.90;;;18.91;100.00;97876.69;5060725;28;20482;-75
2022/06/26 03:23:02;;;;;;;7.30;4.33;;;18.00;99.90;;;18.91;100.00;97874.84;5056622;28;20986;-75
2022/06/26 03:25:34;;;;;;;10.70;4.47;;;18.00;99.90;;;18.92;100.00;97870.31;5060852;28;20472;-75
2022/06/26 03:28:06;;;;;;;8.00;3.80;;;17.90;99.90;;;18.90;100.00;97869.78;5063894;28;20474;-75
2022/06/26 03:30:36;;;;;;;6.70;4.30;;;17.90;99.90;;;18.87;100.00;97875.56;5062035;28;20559;-75
2022/06/26 03:33:06;;;;;;;7.90;4.20;;;17.90;99.90;;;18.84;100.00;97881.34;5062167;28;20649;-75
2022/06/26 03:35:37;;;;;;;7.20;4.20;;;17.90;99.90;;;18.83;100.00;97890.34;5063327;28;20488;-74
2022/06/26 03:38:07;;;;;;;14.40;4.70;;;17.90;99.90;;;18.82;100.00;97886.06;5063019;28;20448;-74
2022/06/26 03:40:39;;;;;;;8.60;4.67;;;17.90;99.90;;;18.80;100.00;97881.03;5060523;28;20460;-75
2022/06/26 03:43:11;;;;;;;10.97;4.10;;;17.90;99.90;;;18.80;100.00;97878.38;5062432;28;20460;-75
2022/06/26 03:45:40;;;;;;;11.47;3.80;;;17.90;99.90;;;18.77;100.00;97880.72;5061098;28;20545;-75
2022/06/26 03:48:11;;;;;;;6.90;4.00;;;17.90;99.90;;;18.74;100.00;97887.31;5059076;28;20491;-75
2022/06/26 03:50:41;;;;;;;8.10;4.30;;;17.90;99.90;;;18.76;100.00;97887.88;5061541;28;20510;-75
2022/06/26 03:53:11;;;;;;;5.07;3.73;;;17.90;99.90;;;18.78;100.00;97890.28;5060257;28;20452;-75
2022/06/26 03:55:43;;;;;;;7.03;4.27;;;17.80;99.90;;;18.77;100.00;97889.47;5057819;28;20578;-75
2022/06/26 03:58:13;;;;;;;7.13;3.60;;;17.90;99.90;;;18.77;100.00;97899.25;5062236;28;20483;-75
2022/06/26 04:00:43;;;;;;;7.57;3.80;;;17.80;99.90;;;18.71;100.00;97901.03;5061505;28;20460;-75
2022/06/26 04:03:13;;;;;;;7.33;4.17;;;17.90;99.90;;;18.67;100.00;97907.06;5058960;28;20544;-75
2022/06/26 04:05:42;;;;;;;5.40;3.40;;;17.90;99.90;;;18.62;100.00;97920.22;5059021;28;20541;-75
2022/06/26 04:08:12;;;;;;;8.70;3.90;;;17.90;99.90;;;18.59;100.00;97924.16;5060041;28;20460;-75
2022/06/26 04:10:45;;;;;;;7.20;3.90;;;17.80;99.90;;;18.60;100.00;97931.06;5057559;28;20824;-74
2022/06/26 04:13:15;;;;;;;6.90;4.40;;;17.70;99.90;;;18.58;100.00;97920.69;5060100;28;20505;-75
2022/06/26 04:15:46;;;;;;;5.60;3.93;;;17.70;99.90;;;18.59;100.00;97921.50;5058250;28;20541;-74
2022/06/26 04:18:17;;;;;;;6.43;3.60;;;17.70;99.90;;;18.57;100.00;97918.28;5060341;28;20517;-74
2022/06/26 04:20:48;;;;;;;5.90;4.00;;;17.70;99.90;;;18.56;100.00;97906.91;5065000;28;20539;-75
2022/06/26 04:23:19;;;;;;;7.17;4.43;;;17.70;99.90;;;18.55;100.00;97913.25;5063795;28;20464;-75
2022/06/26 04:25:50;;;;;;;25.93;3.70;;;17.70;99.90;;;18.57;100.00;97907.69;5063111;28;20950;-75
2022/06/26 04:28:21;;;;;;;7.40;3.80;;;17.70;99.90;;;18.55;100.00;97899.19;5066724;28;20437;-75
2022/06/26 04:30:51;;;;;;;4.07;3.50;;;17.70;99.90;;;18.53;100.00;97886.19;5064745;28;20465;-75
2022/06/26 04:33:20;;;;;;;5.20;3.63;;;17.70;99.90;;;18.56;100.00;97880.44;5065602;28;20459;-74
2022/06/26 04:35:50;;;;;;;7.23;3.60;;;17.70;99.90;;;18.54;100.00;97874.53;5065799;28;20484;-75
2022/06/26 04:38:20;;;;;;;8.63;4.53;;;17.80;99.90;;;18.58;100.00;97888.13;5065344;28;20466;-75
2022/06/26 04:40:52;;;;;;;12.33;3.80;;;17.70;99.90;;;18.62;100.00;97893.72;5064127;28;20480;-75
2022/06/26 04:43:22;;;;;;;8.20;3.80;;;17.80;99.90;;;18.66;100.00;97916.03;5062152;28;20452;-75
2022/06/26 04:45:52;;;;;;;4.93;3.70;;;17.80;99.90;;;18.70;100.00;97922.47;5064802;28;20947;-75
2022/06/26 04:48:22;;;;;;;5.60;4.00;;;17.80;99.90;;;18.69;100.00;97915.56;5063713;28;20453;-75
2022/06/26 04:50:53;;;;;;;8.20;3.80;;;17.90;99.90;;;18.71;100.00;97911.63;5065687;28;20436;-74
2022/06/26 04:53:23;;;;;;;28.80;14.80;;;17.90;99.90;;;18.73;100.00;97908.75;5067140;28;20456;-83
2022/06/26 04:55:55;;;;;;;6.57;3.80;;;17.80;99.90;;;18.76;100.00;97910.91;5064500;28;20586;-75
2022/06/26 04:58:25;;;;;;;5.60;3.50;;;17.90;99.90;;;18.79;100.00;97911.22;5065245;28;20473;-75
2022/06/26 05:00:56;;;;;;;3.77;3.00;;;17.90;99.90;;;18.77;100.00;97918.63;5065859;28;20456;-73
2022/06/26 05:03:26;;;;;;;8.57;5.63;;;18.10;99.90;;;18.77;100.00;97915.16;5063673;28;20826;-75
2022/06/26 05:05:59;;;;;;;9.27;3.40;;;18.10;99.90;;;18.77;100.00;97917.81;5064627;28;20489;-75
2022/06/26 05:08:28;;;;;;;4.07;3.17;;;18.10;99.90;;;18.76;100.00;97924.94;5061950;28;20522;-75
2022/06/26 05:11:01;;;;;;;4.03;3.00;;;18.10;99.90;;;18.78;100.00;97924.72;5066718;28;20456;-75
2022/06/26 05:13:30;;;;;;;3.53;3.00;;;18.20;99.90;;;18.79;100.00;97944.84;5060942;28;20464;-75
2022/06/26 05:16:00;;;;;;;5.47;2.90;;;18.10;99.90;;;18.75;100.00;97946.38;5064648;28;20521;-75
2022/06/26 05:18:30;;;;;;;7.50;2.80;;;17.90;99.90;;;18.77;100.00;97949.59;5065962;28;20797;-75
2022/06/26 05:21:00;;;;;;;3.63;2.50;;;18.00;99.90;;;18.77;100.00;97960.22;5064805;28;20447;-75
2022/06/26 05:23:31;;;;;;;4.10;2.83;;;18.00;99.90;;;18.78;100.00;97962.59;5062820;28;20445;-75
2022/06/26 05:26:04;;;;;;;9.77;3.23;;;18.10;99.90;;;18.80;100.00;97967.66;5063895;28;20978;-75
2022/06/26 05:28:34;;;;;;;5.53;3.00;;;18.10;99.90;;;18.85;100.00;97968.53;5065890;28;20448;-75
2022/06/26 05:31:05;;;;;;;3.90;2.20;;;18.10;99.90;;;18.87;100.00;97963.81;5062760;28;20479;-74
2022/06/26 05:33:36;;;;;;;5.03;2.30;;;18.20;99.90;;;18.92;100.00;97963.88;5063020;28;20456;-75
2022/06/26 05:36:09;;;;;;;5.40;2.70;;;18.20;99.90;;;18.96;100.00;97969.50;5065909;28;20507;-75
2022/06/26 05:38:39;;;;;;;9.90;2.67;;;18.10;99.90;;;18.92;100.00;97968.38;5065119;28;20494;-75
2022/06/26 05:41:13;;;;;;;2.93;2.23;;;18.20;99.90;;;18.89;100.00;97980.28;5061980;28;20473;-76
2022/06/26 05:43:44;;;;;;;3.60;2.27;;;18.20;99.90;;;18.90;100.00;97970.47;5063996;28;20483;-75
2022/06/26 05:46:14;;;;;;;3.67;2.23;;;18.20;99.90;;;18.90;100.00;97981.88;5067131;28;20440;-75
2022/06/26 05:48:44;;;;;;;7.90;2.67;;;18.20;99.90;;;18.95;100.00;97984.59;5063782;28;20498;-75
2022/06/26 05:51:15;;;;;;;3.17;2.73;;;18.10;99.90;;;18.98;100.00;97985.97;5062669;28;20451;-75
2022/06/26 05:53:45;;;;;;;3.20;2.50;;;18.10;99.90;;;19.00;100.00;97989.19;5066817;28;20490;-75
2022/06/26 05:56:17;;;;;;;2.00;1.80;;;18.10;99.90;;;18.99;100.00;97995.50;5066100;28;20578;-75
2022/06/26 05:58:47;;;;;;;2.97;2.40;;;18.10;99.90;;;18.97;100.00;97997.63;5063055;28;20491;-75
2022/06/26 06:01:17;;;;;;;2.90;2.20;;;18.20;99.90;;;18.99;100.00;97996.31;5064358;28;20914;-75
2022/06/26 06:03:46;;;;;;;6.17;2.90;;;18.20;99.90;;;19.03;100.00;97996.66;5063606;28;20500;-75
2022/06/26 06:06:17;;;;;;;4.40;2.03;;;18.20;99.90;;;19.00;100.00;98007.72;5064276;28;21231;-74
2022/06/26 06:08:48;;;;;;;20.33;11.17;;;18.20;99.90;;;18.98;100.00;98008.00;5063751;28;20553;-83
2022/06/26 06:11:20;;;;;;;3.17;2.47;;;18.20;99.90;;;18.96;100.00;98003.94;5062234;28;20502;-75
2022/06/26 06:13:51;;;;;;;2.10;1.60;;;18.20;99.90;;;18.98;100.00;98004.53;5064021;28;20783;-75
2022/06/26 06:16:21;;;;;;;4.33;1.70;;;18.30;99.90;;;19.00;100.00;98005.09;5065188;28;20986;-76
2022/06/26 06:18:51;;;;;;;4.33;1.90;;;18.30;99.90;;;19.01;100.00;98002.19;5065693;28;20854;-75
2022/06/26 06:21:21;;;;;;;3.27;1.80;;;18.30;99.90;;;19.03;100.00;98005.41;5063600;28;20994;-75
2022/06/26 06:23:51;;;;;;;2.93;2.00;;;18.40;99.90;;;19.10;100.00;98002.59;5062612;28;20453;-75
2022/06/26 06:26:23;;;;;;;1.70;1.53;;;18.30;99.90;;;19.17;100.00;98005.06;5065149;28;20442;-75
2022/06/26 06:28:53;;;;;;;3.93;1.50;;;18.30;99.90;;;19.22;100.00;98005.16;5065652;28;20456;-75
2022/06/26 06:31:22;;;;;;;1.80;1.57;;;18.40;99.90;;;19.30;100.00;98007.41;5062022;28;20449;-75
2022/06/26 06:33:53;;;;;;;1.97;1.67;;;18.40;99.90;;;19.35;100.00;98016.22;5046070;28;20481;-75
2022/06/26 06:36:23;;;;;;;3.93;1.80;;;18.50;99.90;;;19.39;100.00;98032.44;5064756;28;20552;-76
2022/06/26 06:38:56;;;;;;;3.53;2.13;;;18.60;99.90;;;19.43;100.00;98026.47;5064886;28;20959;-75
2022/06/26 06:41:28;;;;;;;1.87;1.70;;;18.70;99.90;;;19.48;100.00;98025.69;5059711;28;20480;-75
2022/06/26 06:43:58;;;;;;;2.17;1.67;;;18.70;99.90;;;19.50;100.00;98040.34;5062670;28;20455;-75
2022/06/26 06:46:28;;;;;;;2.83;1.70;;;18.80;99.90;;;19.49;100.00;98035.28;5062770;28;20442;-75
2022/06/26 06:48:59;;;;;;;1.53;1.20;;;18.80;99.90;;;19.53;100.00;98049.66;5060276;28;20456;-75
2022/06/26 06:51:31;;;;;;;4.50;2.90;;;18.80;99.90;;;19.54;100.00;98049.41;5062033;28;20460;-75
2022/06/26 06:54:01;;;;;;;3.90;2.00;;;18.90;99.90;;;19.56;100.00;98042.03;5062547;28;20942;-75
2022/06/26 06:56:34;;;;;;;3.60;2.03;;;18.80;99.90;;;19.62;100.00;98042.06;5063023;28;20551;-75
2022/06/26 06:59:05;;;;;;;1.60;1.37;;;19.00;99.90;;;19.58;100.00;98047.88;5061482;28;20447;-75
2022/06/26 07:01:43;;;;;;;1.80;1.63;;;19.00;99.90;;;19.58;100.00;98045.22;5061408;28;20467;-76
2022/06/26 07:04:13;;;;;;;2.53;1.80;;;19.00;99.90;;;19.57;100.00;98048.94;5061333;28;20457;-76
2022/06/26 07:06:44;;;;;;;2.13;1.40;;;18.90;99.90;;;19.63;100.00;98051.66;5061891;28;20951;-76
2022/06/26 07:09:15;;;;;;;1.60;1.43;;;18.80;99.90;;;19.71;100.00;98037.97;5059642;28;20637;-76
2022/06/26 07:11:47;;;;;;;3.33;1.77;;;19.00;99.90;;;19.75;100.00;98036.44;5060157;28;21148;-76
2022/06/26 07:14:23;;;;;;;1.67;1.50;;;18.90;99.90;;;19.82;100.00;98037.06;5061430;28;20317;-76
2022/06/26 07:16:54;;;;;;;4.80;1.70;;;18.90;99.90;;;19.93;100.00;98033.47;5066092;28;20505;-76
2022/06/26 07:19:25;;;;;;;2.73;1.70;;;19.00;99.90;;;20.01;100.00;98035.69;5066023;28;20480;-76
2022/06/26 07:21:55;;;;;;;1.87;1.67;;;19.20;99.90;;;20.08;100.00;98033.66;5063124;28;20480;-77
2022/06/26 07:24:25;;;;;;;1.63;1.40;;;19.20;99.90;;;20.12;100.00;98032.09;5066078;28;20519;-76
2022/06/26 07:26:57;;;;;;;2.53;1.47;;;19.30;99.90;;;20.16;100.00;98038.53;5063572;28;20464;-76
2022/06/26 07:29:27;;;;;;;1.80;1.40;;;19.30;99.90;;;20.17;100.00;98040.13;5063685;28;20459;-76
2022/06/26 07:31:57;;;;;;;1.97;1.40;;;19.30;99.90;;;20.19;100.00;98046.00;5063202;28;20467;-76
2022/06/26 07:34:26;;;;;;;1.70;1.33;;;19.30;99.90;;;20.18;100.00;98049.69;5064903;28;20475;-76
2022/06/26 07:36:56;;;;;;;1.30;1.20;;;19.30;99.90;;;20.20;100.00;98050.25;5064143;28;21215;-76
2022/06/26 07:39:27;;;;;;;1.80;1.30;;;19.40;99.90;;;20.17;100.00;98049.94;5062808;28;20456;-76
2022/06/26 07:41:58;;;;;;;3.17;1.33;;;19.50;99.90;;;20.15;100.00;98050.19;5061967;28;20518;-76
2022/06/26 07:44:28;;;;;;;2.60;1.40;;;19.40;99.90;;;20.14;100.00;98051.25;5063604;28;20457;-76
2022/06/26 07:46:58;;;;;;;2.50;1.30;;;19.50;99.90;;;20.15;100.00;98052.84;5065062;28;20500;-75
2022/06/26 07:49:28;;;;;;;1.80;1.40;;;19.30;99.90;;;20.19;100.00;98053.16;5064536;28;20459;-75
2022/06/26 07:52:06;;;;;;;15.37;8.17;;;19.40;99.90;;;20.15;100.00;98066.13;5062834;28;20448;-84
2022/06/26 07:54:36;;;;;;;3.70;2.10;;;19.30;99.90;;;20.19;100.00;98059.28;5067287;28;20507;-76
2022/06/26 07:57:07;;;;;;;2.07;1.47;;;19.50;99.90;;;20.27;100.00;98047.41;5061722;28;20463;-76
2022/06/26 07:59:41;;;;;;;2.00;1.60;;;19.50;99.90;;;20.33;100.00;98046.44;5067085;28;20500;-76
2022/06/26 08:02:11;;;;;;;2.00;1.30;;;19.60;99.90;;;20.38;100.00;98039.31;5065273;28;20468;-76
2022/06/26 08:04:41;;;;;;;2.63;1.40;;;19.60;99.90;;;20.42;100.00;98036.97;5065253;28;20500;-76
2022/06/26 08:07:12;;;;;;;2.60;1.30;;;19.50;99.90;;;20.42;100.00;98042.28;5067390;28;20502;-76
2022/06/26 08:09:42;;;;;;;2.00;1.53;;;19.80;99.90;;;20.45;100.00;98042.59;5065152;28;20475;-75
2022/06/26 08:12:13;;;;;;;1.70;1.20;;;19.70;99.90;;;20.44;100.00;98040.97;5068236;28;20529;-76
2022/06/26 08:14:44;;;;;;;1.90;1.50;;;19.90;99.90;;;20.46;100.00;98032.78;5063330;28;20452;-75
2022/06/26 08:17:16;;;;;;;5.83;2.70;;;19.70;99.90;;;20.53;100.00;98036.84;5066954;28;20530;-84
2022/06/26 08:19:47;;;;;;;4.97;2.60;;;19.80;99.90;;;20.57;100.00;98037.94;5066313;28;20494;-75
2022/06/26 08:22:17;;;;;;;1.77;1.30;;;19.80;99.90;;;20.51;100.00;98040.81;5066501;28;20482;-75
2022/06/26 08:24:47;;;;;;;1.57;1.30;;;20.00;99.90;;;20.55;100.00;98042.69;5066773;28;20459;-75
2022/06/26 08:27:20;;;;;;;1.30;1.20;;;19.90;99.90;;;20.59;100.00;98035.81;5067388;28;20464;-75
2022/06/26 08:29:49;;;;;;;2.23;1.40;;;20.00;99.90;;;20.69;100.00;98039.66;5067240;28;20434;-75
2022/06/26 08:32:20;;;;;;;1.60;1.27;;;20.10;99.90;;;20.70;100.00;98043.88;5063227;28;20576;-75
2022/06/26 08:34:49;;;;;;;3.87;1.33;;;20.00;99.90;;;20.76;100.00;98049.00;5066645;28;20487;-75
2022/06/26 08:37:20;;;;;;;1.75;1.40;;;20.20;99.90;;;20.74;100.00;98055.63;5066514;28;20451;-75
2022/06/26 08:39:49;;;;;;;8.83;1.50;;;20.10;99.90;;;20.83;100.00;98059.44;5063244;28;20460;-76
2022/06/26 08:42:31;;;;;;;5.83;1.20;;;20.20;99.90;;;20.94;100.00;98058.47;5063846;28;20546;-75
2022/06/26 08:45:01;;;;;;;2.23;1.43;;;20.40;99.90;;;21.03;100.00;98063.06;5065531;28;20488;-75
2022/06/26 08:47:37;;;;;;;1.90;1.30;;;20.50;99.90;;;21.06;100.00;98067.09;5065474;28;20470;-76
2022/06/26 08:50:07;;;;;;;1.97;1.30;;;20.40;99.90;;;21.12;100.00;98068.75;5064320;28;20448;-76
2022/06/26 08:52:40;;;;;;;1.37;1.13;;;20.50;99.90;;;21.21;100.00;98066.44;5066269;28;20496;-75
2022/06/26 08:55:11;;;;;;;1.37;1.10;;;20.60;99.90;;;21.24;100.00;98066.72;5064456;28;20495;-76
2022/06/26 08:57:43;;;;;;;1.57;1.17;;;20.60;99.90;;;21.31;100.00;98066.53;5066136;28;20460;-75
2022/06/26 09:00:15;;;;;;;1.30;1.20;;;20.60;99.90;;;21.39;100.00;98066.84;5065276;28;20451;-76
2022/06/26 09:02:44;;;;;;;2.00;1.33;;;20.70;99.90;;;21.43;100.00;98065.28;5065252;28;20461;-76
2022/06/26 09:05:14;;;;;;;2.70;1.40;;;20.70;99.90;;;21.49;100.00;98058.91;5065426;28;20992;-75
2022/06/26 09:07:52;;;;;;;3.07;1.30;;;20.80;99.90;;;21.55;100.00;98057.88;5061956;28;20457;-75
2022/06/26 09:10:22;;;;;;;1.30;1.20;;;20.70;99.90;;;21.64;100.00;98065.41;5063785;28;20604;-75
2022/06/26 09:12:56;;;;;;;1.60;1.20;;;20.90;99.90;;;21.71;100.00;98072.09;5068031;28;20452;-75
2022/06/26 09:15:27;;;;;;;3.00;1.27;;;21.00;99.90;;;21.76;100.00;98064.16;5064635;28;20509;-75
2022/06/26 09:17:59;;;;;;;5.63;1.20;;;21.10;99.90;;;21.83;100.00;98064.69;5066957;28;20468;-84
2022/06/26 09:20:33;;;;;;;4.60;3.00;;;21.10;99.90;;;21.91;100.00;98063.44;5066606;28;20461;-75
2022/06/26 09:23:04;;;;;;;3.13;1.60;;;21.30;99.90;;;21.97;100.00;98073.06;5064890;28;20498;-75
2022/06/26 09:25:36;;;;;;;2.20;1.40;;;21.40;99.90;;;21.99;100.00;98071.75;5065450;28;20453;-75
2022/06/26 09:28:14;;;;;;;1.60;1.23;;;21.40;99.90;;;22.05;100.00;98064.56;5063163;28;20464;-75
2022/06/26 09:30:52;;;;;;;1.63;1.43;;;21.40;99.90;;;22.13;100.00;98064.09;5063513;28;20512;-75
2022/06/26 09:33:26;;;;;;;4.47;1.50;;;21.50;99.90;;;22.17;100.00;98059.84;5064717;28;20980;-75
2022/06/26 09:35:58;;;;;;;5.30;3.63;;;21.50;99.90;;;22.24;100.00;98060.41;5065374;28;20849;-74
2022/06/26 09:38:31;;;;;;;2.90;1.83;;;21.60;99.90;;;22.32;100.00;98067.88;5061664;28;20492;-74
2022/06/26 09:41:04;;;;;;;2.00;1.27;;;21.60;99.90;;;22.41;100.00;98071.66;5063998;28;20505;-74
2022/06/26 09:43:37;;;;;;;1.90;1.40;;;21.70;99.90;;;22.43;100.00;98072.16;5063408;28;20452;-75
2022/06/26 09:46:10;;;;;;;1.60;1.30;;;21.80;99.90;;;22.47;100.00;98069.78;5062194;28;20488;-75
2022/06/26 09:48:42;;;;;;;1.27;1.13;;;21.80;99.90;;;22.54;100.00;98068.47;5065468;28;20456;-75
2022/06/26 09:51:13;;;;;;;1.57;1.40;;;21.90;99.90;;;22.55;100.00;98080.75;5064207;28;20457;-75
2022/06/26 09:53:44;;;;;;;1.60;1.40;;;22.00;99.90;;;22.63;100.00;98068.75;5063275;28;20452;-75
2022/06/26 09:56:14;;;;;;;2.30;1.40;;;22.00;99.90;;;22.65;100.00;98073.81;5065092;28;20449;-75
2022/06/26 09:58:45;;;;;;;2.03;1.30;;;22.00;99.90;;;22.69;100.00;98066.94;5065877;28;20486;-74
2022/06/26 10:06:52;;;;;;;1.90;1.40;;;22.00;99.90;;;22.75;100.00;98065.88;5063331;28;20974;-75
2022/06/26 10:09:23;;;;;;;1.40;1.30;;;22.10;99.90;;;22.74;100.00;98073.06;5065693;28;20478;-75
2022/06/26 10:11:57;;;;;;;1.50;1.30;;;22.10;99.90;;;22.73;100.00;98070.69;5062921;28;20464;-75
2022/06/26 10:14:35;;;;;;;2.57;1.37;;;22.20;99.90;;;22.76;100.00;98072.81;5063053;28;20461;-75
2022/06/26 10:17:49;;;;;;;1.53;1.20;;;22.10;99.90;;;22.73;100.00;98078.69;5062419;28;20461;-75
2022/06/26 10:20:23;;;;;;;3.13;1.40;;;22.10;99.90;;;22.62;100.00;98083.16;5062896;28;20633;-75
2022/06/26 10:22:54;;;;;;;2.00;1.30;;;21.80;99.90;;;22.59;100.00;98092.47;5062378;28;20518;-75
2022/06/26 10:25:25;;;;;;;1.40;1.30;;;21.90;99.90;;;22.51;100.00;98090.34;5062963;28;20486;-75
2022/06/26 10:27:57;;;;;;;1.33;1.13;;;21.80;99.90;;;22.49;100.00;98092.44;5066672;28;20452;-75
2022/06/26 10:30:31;;;;;;;1.97;1.33;;;21.80;99.90;;;22.47;100.00;98091.91;5063930;28;20463;-75
2022/06/26 10:33:16;;;;;;;1.57;1.23;;;21.80;99.90;;;22.38;100.00;98098.81;5064031;28;20527;-75
2022/06/26 10:35:57;;;;;;;1.30;1.10;;;21.70;99.90;;;22.32;100.00;98102.50;5065994;28;20525;-75
2022/06/26 10:38:29;;;;;;;1.77;1.40;;;21.70;99.90;;;22.27;100.00;98102.50;5064423;28;20465;-75
2022/06/26 10:44:04;;;;;;;2.17;1.60;;;21.60;99.90;;;22.10;100.00;98115.22;5060081;28;20796;-75